sensor_id;sensor_type;location;lat;lon;timestamp;P1;durP1;ratioP1;P2;durP2;ratioP2
39300;SDS011;25019;42.626;23.380;2023-05-17T00:01:32;8.07;;;5.03;;
39300;SDS011;25019;42.626;23.380;2023-05-17T00:03:57;12.23;;;5.47;;
39300;SDS011;25019;42.626;23.380;2023-05-17T00:06:23;12.43;;;6.33;;
39300;SDS011;25019;42.626;23.380;2023-05-17T00:08:48;7.10;;;4.60;;
39300;SDS011;25019;42.626;23.380;2023-05-17T00:11:14;8.63;;;4.83;;
39300;SDS011;25019;42.626;23.380;2023-05-17T00:13:40;10.60;;;4.43;;
39300;SDS011;25019;42.626;23.380;2023-05-17T00:16:06;14.80;;;4.57;;
39300;SDS011;25019;42.626;23.380;2023-05-17T00:18:32;12.00;;;5.13;;
39300;SDS011;25019;42.626;23.380;2023-05-17T00:20:58;9.07;;;4.87;;
39300;SDS011;25019;42.626;23.380;2023-05-17T00:23:23;7.90;;;4.93;;
39300;SDS011;25019;42.626;23.380;2023-05-17T00:25:49;7.53;;;5.27;;
39300;SDS011;25019;42.626;23.380;2023-05-17T00:28:15;9.67;;;5.60;;
39300;SDS011;25019;42.626;23.380;2023-05-17T00:30:41;9.73;;;5.03;;
39300;SDS011;25019;42.626;23.380;2023-05-17T00:33:06;10.43;;;5.23;;
39300;SDS011;25019;42.626;23.380;2023-05-17T00:35:32;8.97;;;5.17;;
39300;SDS011;25019;42.626;23.380;2023-05-17T00:37:58;9.47;;;5.10;;
39300;SDS011;25019;42.626;23.380;2023-05-17T00:40:23;8.97;;;5.30;;
39300;SDS011;25019;42.626;23.380;2023-05-17T00:42:49;13.07;;;5.83;;
39300;SDS011;25019;42.626;23.380;2023-05-17T00:45:15;9.97;;;5.17;;
39300;SDS011;25019;42.626;23.380;2023-05-17T00:47:41;9.07;;;4.80;;
39300;SDS011;25019;42.626;23.380;2023-05-17T00:50:07;10.00;;;5.27;;
39300;SDS011;25019;42.626;23.380;2023-05-17T00:52:33;15.17;;;4.93;;
39300;SDS011;25019;42.626;23.380;2023-05-17T00:55:00;8.93;;;5.30;;
39300;SDS011;25019;42.626;23.380;2023-05-17T00:57:26;9.80;;;4.90;;
39300;SDS011;25019;42.626;23.380;2023-05-17T00:59:54;9.27;;;5.27;;
39300;SDS011;25019;42.626;23.380;2023-05-17T01:02:19;11.23;;;4.63;;
39300;SDS011;25019;42.626;23.380;2023-05-17T01:04:45;11.87;;;4.90;;
39300;SDS011;25019;42.626;23.380;2023-05-17T01:07:12;11.97;;;5.10;;
39300;SDS011;25019;42.626;23.380;2023-05-17T01:09:38;8.80;;;5.00;;
39300;SDS011;25019;42.626;23.380;2023-05-17T01:20:36;9.73;;;4.40;;
39300;SDS011;25019;42.626;23.380;2023-05-17T01:23:09;8.03;;;4.00;;
39300;SDS011;25019;42.626;23.380;2023-05-17T01:26:02;9.23;;;5.30;;
39300;SDS011;25019;42.626;23.380;2023-05-17T01:28:36;8.20;;;4.33;;
39300;SDS011;25019;42.626;23.380;2023-05-17T01:31:03;8.80;;;5.23;;
39300;SDS011;25019;42.626;23.380;2023-05-17T01:33:30;9.03;;;4.63;;
39300;SDS011;25019;42.626;23.380;2023-05-17T01:35:56;9.97;;;4.47;;
39300;SDS011;25019;42.626;23.380;2023-05-17T01:38:22;9.90;;;4.70;;
39300;SDS011;25019;42.626;23.380;2023-05-17T01:46:11;7.67;;;3.83;;
39300;SDS011;25019;42.626;23.380;2023-05-17T01:48:43;7.90;;;4.50;;
39300;SDS011;25019;42.626;23.380;2023-05-17T01:51:18;11.20;;;5.40;;
39300;SDS011;25019;42.626;23.380;2023-05-17T01:53:46;9.07;;;4.73;;
39300;SDS011;25019;42.626;23.380;2023-05-17T01:56:19;9.83;;;5.00;;
39300;SDS011;25019;42.626;23.380;2023-05-17T01:58:51;10.23;;;5.57;;
39300;SDS011;25019;42.626;23.380;2023-05-17T02:01:18;10.43;;;6.20;;
39300;SDS011;25019;42.626;23.380;2023-05-17T02:03:48;16.73;;;8.23;;
39300;SDS011;25019;42.626;23.380;2023-05-17T02:06:15;13.57;;;7.30;;
39300;SDS011;25019;42.626;23.380;2023-05-17T02:08:41;14.57;;;8.37;;
39300;SDS011;25019;42.626;23.380;2023-05-17T02:11:07;12.00;;;7.17;;
39300;SDS011;25019;42.626;23.380;2023-05-17T02:13:33;14.20;;;7.67;;
39300;SDS011;25019;42.626;23.380;2023-05-17T02:15:59;16.47;;;8.63;;
39300;SDS011;25019;42.626;23.380;2023-05-17T02:18:25;12.77;;;8.63;;
39300;SDS011;25019;42.626;23.380;2023-05-17T02:20:51;12.80;;;8.80;;
39300;SDS011;25019;42.626;23.380;2023-05-17T02:23:19;16.67;;;9.93;;
39300;SDS011;25019;42.626;23.380;2023-05-17T02:25:45;15.47;;;8.63;;
39300;SDS011;25019;42.626;23.380;2023-05-17T02:28:11;18.97;;;9.57;;
39300;SDS011;25019;42.626;23.380;2023-05-17T02:30:37;16.90;;;9.23;;
39300;SDS011;25019;42.626;23.380;2023-05-17T02:33:05;14.37;;;9.57;;
39300;SDS011;25019;42.626;23.380;2023-05-17T02:35:31;14.77;;;9.83;;
39300;SDS011;25019;42.626;23.380;2023-05-17T02:37:57;14.40;;;9.50;;
39300;SDS011;25019;42.626;23.380;2023-05-17T02:40:23;14.83;;;9.63;;
39300;SDS011;25019;42.626;23.380;2023-05-17T02:42:48;14.73;;;10.10;;
39300;SDS011;25019;42.626;23.380;2023-05-17T02:45:14;16.53;;;10.73;;
39300;SDS011;25019;42.626;23.380;2023-05-17T02:47:40;17.43;;;10.57;;
39300;SDS011;25019;42.626;23.380;2023-05-17T02:50:06;19.60;;;11.83;;
39300;SDS011;25019;42.626;23.380;2023-05-17T02:52:32;21.63;;;11.83;;
39300;SDS011;25019;42.626;23.380;2023-05-17T02:54:58;17.53;;;11.73;;
39300;SDS011;25019;42.626;23.380;2023-05-17T02:57:24;19.80;;;12.07;;
39300;SDS011;25019;42.626;23.380;2023-05-17T02:59:49;19.80;;;11.13;;
39300;SDS011;25019;42.626;23.380;2023-05-17T03:02:15;13.50;;;9.43;;
39300;SDS011;25019;42.626;23.380;2023-05-17T03:04:41;16.90;;;10.33;;
39300;SDS011;25019;42.626;23.380;2023-05-17T03:07:07;14.70;;;9.77;;
39300;SDS011;25019;42.626;23.380;2023-05-17T03:09:33;16.40;;;10.10;;
39300;SDS011;25019;42.626;23.380;2023-05-17T03:11:59;19.47;;;11.13;;
39300;SDS011;25019;42.626;23.380;2023-05-17T03:14:29;20.07;;;12.23;;
39300;SDS011;25019;42.626;23.380;2023-05-17T03:16:55;20.97;;;12.87;;
39300;SDS011;25019;42.626;23.380;2023-05-17T03:19:21;15.80;;;11.83;;
39300;SDS011;25019;42.626;23.380;2023-05-17T03:21:48;19.67;;;13.17;;
39300;SDS011;25019;42.626;23.380;2023-05-17T03:24:14;17.13;;;12.90;;
39300;SDS011;25019;42.626;23.380;2023-05-17T03:26:40;18.67;;;12.17;;
39300;SDS011;25019;42.626;23.380;2023-05-17T03:29:08;17.63;;;13.27;;
39300;SDS011;25019;42.626;23.380;2023-05-17T03:31:34;16.23;;;12.67;;
39300;SDS011;25019;42.626;23.380;2023-05-17T03:34:00;22.30;;;13.30;;
39300;SDS011;25019;42.626;23.380;2023-05-17T03:36:26;23.20;;;13.03;;
39300;SDS011;25019;42.626;23.380;2023-05-17T03:38:52;18.50;;;13.40;;
39300;SDS011;25019;42.626;23.380;2023-05-17T03:41:19;18.63;;;13.07;;
39300;SDS011;25019;42.626;23.380;2023-05-17T03:43:45;20.13;;;12.53;;
39300;SDS011;25019;42.626;23.380;2023-05-17T03:46:12;20.80;;;13.30;;
39300;SDS011;25019;42.626;23.380;2023-05-17T03:48:39;18.43;;;13.50;;
39300;SDS011;25019;42.626;23.380;2023-05-17T03:51:05;18.80;;;12.43;;
39300;SDS011;25019;42.626;23.380;2023-05-17T03:53:32;22.80;;;13.40;;
39300;SDS011;25019;42.626;23.380;2023-05-17T03:55:57;19.30;;;13.10;;
39300;SDS011;25019;42.626;23.380;2023-05-17T03:58:23;21.33;;;13.33;;
39300;SDS011;25019;42.626;23.380;2023-05-17T04:00:49;19.47;;;13.57;;
39300;SDS011;25019;42.626;23.380;2023-05-17T04:03:17;19.57;;;14.10;;
39300;SDS011;25019;42.626;23.380;2023-05-17T04:05:42;22.87;;;13.90;;
39300;SDS011;25019;42.626;23.380;2023-05-17T04:08:11;15.13;;;12.07;;
39300;SDS011;25019;42.626;23.380;2023-05-17T04:10:37;18.20;;;12.60;;
39300;SDS011;25019;42.626;23.380;2023-05-17T04:13:06;18.07;;;12.07;;
39300;SDS011;25019;42.626;23.380;2023-05-17T04:15:34;16.70;;;12.47;;
39300;SDS011;25019;42.626;23.380;2023-05-17T04:18:01;16.47;;;11.87;;
39300;SDS011;25019;42.626;23.380;2023-05-17T04:20:27;19.67;;;12.07;;
39300;SDS011;25019;42.626;23.380;2023-05-17T04:22:53;16.40;;;11.53;;
39300;SDS011;25019;42.626;23.380;2023-05-17T04:25:19;16.47;;;11.50;;
39300;SDS011;25019;42.626;23.380;2023-05-17T04:27:45;19.03;;;11.77;;
39300;SDS011;25019;42.626;23.380;2023-05-17T04:30:12;15.63;;;11.17;;
39300;SDS011;25019;42.626;23.380;2023-05-17T04:32:38;17.20;;;12.07;;
39300;SDS011;25019;42.626;23.380;2023-05-17T04:35:04;16.30;;;12.13;;
39300;SDS011;25019;42.626;23.380;2023-05-17T04:37:30;13.77;;;12.23;;
39300;SDS011;25019;42.626;23.380;2023-05-17T04:39:59;17.47;;;12.40;;
39300;SDS011;25019;42.626;23.380;2023-05-17T04:42:28;17.97;;;13.27;;
39300;SDS011;25019;42.626;23.380;2023-05-17T04:44:56;17.00;;;11.30;;
39300;SDS011;25019;42.626;23.380;2023-05-17T04:47:23;19.10;;;11.33;;
39300;SDS011;25019;42.626;23.380;2023-05-17T04:49:50;17.13;;;11.77;;
39300;SDS011;25019;42.626;23.380;2023-05-17T04:52:16;17.47;;;12.17;;
39300;SDS011;25019;42.626;23.380;2023-05-17T04:54:42;18.17;;;12.33;;
39300;SDS011;25019;42.626;23.380;2023-05-17T04:57:08;14.53;;;11.57;;
39300;SDS011;25019;42.626;23.380;2023-05-17T04:59:49;18.83;;;12.87;;
39300;SDS011;25019;42.626;23.380;2023-05-17T05:02:14;16.47;;;12.03;;
39300;SDS011;25019;42.626;23.380;2023-05-17T05:04:40;36.03;;;12.67;;
39300;SDS011;25019;42.626;23.380;2023-05-17T05:07:07;15.63;;;10.83;;
39300;SDS011;25019;42.626;23.380;2023-05-17T05:09:33;18.40;;;12.70;;
39300;SDS011;25019;42.626;23.380;2023-05-17T05:11:59;14.80;;;11.17;;
39300;SDS011;25019;42.626;23.380;2023-05-17T05:14:24;17.03;;;11.27;;
39300;SDS011;25019;42.626;23.380;2023-05-17T05:16:50;14.80;;;11.10;;
39300;SDS011;25019;42.626;23.380;2023-05-17T05:19:16;16.97;;;11.23;;
39300;SDS011;25019;42.626;23.380;2023-05-17T05:21:43;13.23;;;10.20;;
39300;SDS011;25019;42.626;23.380;2023-05-17T05:24:10;14.37;;;10.17;;
39300;SDS011;25019;42.626;23.380;2023-05-17T05:26:36;18.90;;;10.27;;
39300;SDS011;25019;42.626;23.380;2023-05-17T05:29:03;14.07;;;9.27;;
39300;SDS011;25019;42.626;23.380;2023-05-17T05:31:29;11.47;;;9.60;;
39300;SDS011;25019;42.626;23.380;2023-05-17T05:33:57;13.00;;;9.47;;
39300;SDS011;25019;42.626;23.380;2023-05-17T05:36:24;15.40;;;9.87;;
39300;SDS011;25019;42.626;23.380;2023-05-17T05:38:50;11.87;;;9.27;;
39300;SDS011;25019;42.626;23.380;2023-05-17T05:41:19;16.23;;;8.50;;
39300;SDS011;25019;42.626;23.380;2023-05-17T05:43:59;12.57;;;8.57;;
39300;SDS011;25019;42.626;23.380;2023-05-17T05:46:25;11.77;;;8.77;;
39300;SDS011;25019;42.626;23.380;2023-05-17T05:48:58;14.70;;;8.33;;
39300;SDS011;25019;42.626;23.380;2023-05-17T05:51:24;12.03;;;8.20;;
39300;SDS011;25019;42.626;23.380;2023-05-17T05:53:53;11.73;;;8.07;;
39300;SDS011;25019;42.626;23.380;2023-05-17T05:56:25;12.37;;;9.03;;
39300;SDS011;25019;42.626;23.380;2023-05-17T05:58:56;11.13;;;8.20;;
39300;SDS011;25019;42.626;23.380;2023-05-17T06:01:31;13.20;;;9.57;;
39300;SDS011;25019;42.626;23.380;2023-05-17T06:03:56;10.73;;;8.60;;
39300;SDS011;25019;42.626;23.380;2023-05-17T06:06:22;9.50;;;8.07;;
39300;SDS011;25019;42.626;23.380;2023-05-17T06:08:48;14.33;;;8.27;;
39300;SDS011;25019;42.626;23.380;2023-05-17T06:11:13;13.03;;;9.50;;
39300;SDS011;25019;42.626;23.380;2023-05-17T06:13:39;12.67;;;8.03;;
39300;SDS011;25019;42.626;23.380;2023-05-17T06:16:05;14.17;;;9.07;;
39300;SDS011;25019;42.626;23.380;2023-05-17T06:18:31;14.90;;;8.40;;
39300;SDS011;25019;42.626;23.380;2023-05-17T06:20:57;14.63;;;9.27;;
39300;SDS011;25019;42.626;23.380;2023-05-17T06:23:23;13.20;;;8.60;;
39300;SDS011;25019;42.626;23.380;2023-05-17T06:25:48;14.43;;;8.97;;
39300;SDS011;25019;42.626;23.380;2023-05-17T06:28:16;19.00;;;9.87;;
39300;SDS011;25019;42.626;23.380;2023-05-17T06:30:41;13.00;;;9.10;;
39300;SDS011;25019;42.626;23.380;2023-05-17T06:33:07;13.77;;;9.20;;
39300;SDS011;25019;42.626;23.380;2023-05-17T06:35:33;16.50;;;9.17;;
39300;SDS011;25019;42.626;23.380;2023-05-17T06:38:00;13.23;;;9.30;;
39300;SDS011;25019;42.626;23.380;2023-05-17T06:40:25;14.63;;;8.80;;
39300;SDS011;25019;42.626;23.380;2023-05-17T06:42:51;16.37;;;9.10;;
39300;SDS011;25019;42.626;23.380;2023-05-17T06:45:16;12.53;;;8.50;;
39300;SDS011;25019;42.626;23.380;2023-05-17T06:47:42;16.23;;;10.33;;
39300;SDS011;25019;42.626;23.380;2023-05-17T06:50:08;14.03;;;10.40;;
39300;SDS011;25019;42.626;23.380;2023-05-17T06:52:34;13.43;;;9.77;;
39300;SDS011;25019;42.626;23.380;2023-05-17T06:55:00;25.33;;;11.83;;
39300;SDS011;25019;42.626;23.380;2023-05-17T06:57:26;16.03;;;10.57;;
39300;SDS011;25019;42.626;23.380;2023-05-17T06:59:51;15.03;;;10.90;;
39300;SDS011;25019;42.626;23.380;2023-05-17T07:02:17;20.40;;;11.63;;
39300;SDS011;25019;42.626;23.380;2023-05-17T07:04:43;18.43;;;11.57;;
39300;SDS011;25019;42.626;23.380;2023-05-17T07:07:09;16.53;;;11.90;;
39300;SDS011;25019;42.626;23.380;2023-05-17T07:09:35;16.50;;;10.77;;
39300;SDS011;25019;42.626;23.380;2023-05-17T07:12:01;22.57;;;12.03;;
39300;SDS011;25019;42.626;23.380;2023-05-17T07:14:28;17.80;;;11.27;;
39300;SDS011;25019;42.626;23.380;2023-05-17T07:16:54;19.57;;;11.50;;
39300;SDS011;25019;42.626;23.380;2023-05-17T07:19:20;19.33;;;12.07;;
39300;SDS011;25019;42.626;23.380;2023-05-17T07:21:45;21.17;;;11.67;;
39300;SDS011;25019;42.626;23.380;2023-05-17T07:24:11;18.90;;;10.40;;
39300;SDS011;25019;42.626;23.380;2023-05-17T07:26:37;19.37;;;11.63;;
39300;SDS011;25019;42.626;23.380;2023-05-17T07:29:03;20.83;;;11.87;;
39300;SDS011;25019;42.626;23.380;2023-05-17T07:31:28;17.87;;;10.97;;
39300;SDS011;25019;42.626;23.380;2023-05-17T07:33:54;16.33;;;10.90;;
39300;SDS011;25019;42.626;23.380;2023-05-17T07:36:20;18.37;;;10.53;;
39300;SDS011;25019;42.626;23.380;2023-05-17T07:38:45;16.60;;;10.63;;
39300;SDS011;25019;42.626;23.380;2023-05-17T07:41:11;19.63;;;10.83;;
39300;SDS011;25019;42.626;23.380;2023-05-17T07:43:39;15.20;;;10.37;;
39300;SDS011;25019;42.626;23.380;2023-05-17T07:46:05;15.47;;;10.10;;
39300;SDS011;25019;42.626;23.380;2023-05-17T07:48:30;15.60;;;9.63;;
39300;SDS011;25019;42.626;23.380;2023-05-17T07:50:56;12.13;;;9.63;;
39300;SDS011;25019;42.626;23.380;2023-05-17T07:53:21;16.93;;;10.40;;
39300;SDS011;25019;42.626;23.380;2023-05-17T07:55:47;18.20;;;10.63;;
39300;SDS011;25019;42.626;23.380;2023-05-17T07:58:12;14.67;;;10.60;;
39300;SDS011;25019;42.626;23.380;2023-05-17T08:00:38;15.00;;;10.47;;
39300;SDS011;25019;42.626;23.380;2023-05-17T08:03:06;18.07;;;10.80;;
39300;SDS011;25019;42.626;23.380;2023-05-17T08:05:32;18.37;;;9.80;;
39300;SDS011;25019;42.626;23.380;2023-05-17T08:07:58;16.57;;;9.93;;
39300;SDS011;25019;42.626;23.380;2023-05-17T08:10:27;20.00;;;10.07;;
39300;SDS011;25019;42.626;23.380;2023-05-17T08:12:53;18.93;;;9.97;;
39300;SDS011;25019;42.626;23.380;2023-05-17T08:15:18;16.00;;;10.30;;
39300;SDS011;25019;42.626;23.380;2023-05-17T08:17:44;18.33;;;10.50;;
39300;SDS011;25019;42.626;23.380;2023-05-17T08:20:10;16.57;;;9.73;;
39300;SDS011;25019;42.626;23.380;2023-05-17T08:22:36;15.73;;;10.03;;
39300;SDS011;25019;42.626;23.380;2023-05-17T08:25:02;13.73;;;9.17;;
39300;SDS011;25019;42.626;23.380;2023-05-17T08:27:28;14.50;;;10.20;;
39300;SDS011;25019;42.626;23.380;2023-05-17T08:29:56;12.63;;;9.30;;
39300;SDS011;25019;42.626;23.380;2023-05-17T08:32:22;17.57;;;10.17;;
39300;SDS011;25019;42.626;23.380;2023-05-17T08:34:49;17.13;;;10.10;;
39300;SDS011;25019;42.626;23.380;2023-05-17T08:37:15;14.87;;;9.17;;
39300;SDS011;25019;42.626;23.380;2023-05-17T08:39:41;14.23;;;9.37;;
39300;SDS011;25019;42.626;23.380;2023-05-17T08:42:07;14.73;;;9.53;;
39300;SDS011;25019;42.626;23.380;2023-05-17T08:44:33;10.73;;;8.47;;
39300;SDS011;25019;42.626;23.380;2023-05-17T08:46:58;13.63;;;8.63;;
39300;SDS011;25019;42.626;23.380;2023-05-17T08:49:26;11.63;;;8.47;;
39300;SDS011;25019;42.626;23.380;2023-05-17T08:51:56;14.07;;;8.63;;
39300;SDS011;25019;42.626;23.380;2023-05-17T08:54:25;13.63;;;8.60;;
39300;SDS011;25019;42.626;23.380;2023-05-17T08:56:52;16.27;;;8.07;;
39300;SDS011;25019;42.626;23.380;2023-05-17T08:59:21;16.10;;;7.80;;
39300;SDS011;25019;42.626;23.380;2023-05-17T09:01:47;13.40;;;7.90;;
39300;SDS011;25019;42.626;23.380;2023-05-17T09:04:14;11.73;;;7.53;;
39300;SDS011;25019;42.626;23.380;2023-05-17T09:06:40;12.50;;;7.87;;
39300;SDS011;25019;42.626;23.380;2023-05-17T09:09:08;14.57;;;7.87;;
39300;SDS011;25019;42.626;23.380;2023-05-17T09:11:34;13.17;;;8.23;;
39300;SDS011;25019;42.626;23.380;2023-05-17T09:14:04;21.20;;;8.23;;
39300;SDS011;25019;42.626;23.380;2023-05-17T09:16:31;14.97;;;7.73;;
39300;SDS011;25019;42.626;23.380;2023-05-17T09:18:59;11.93;;;6.83;;
39300;SDS011;25019;42.626;23.380;2023-05-17T09:21:26;14.17;;;6.97;;
39300;SDS011;25019;42.626;23.380;2023-05-17T09:23:55;16.03;;;9.17;;
39300;SDS011;25019;42.626;23.380;2023-05-17T09:26:23;17.13;;;8.73;;
39300;SDS011;25019;42.626;23.380;2023-05-17T09:28:49;17.47;;;9.10;;
39300;SDS011;25019;42.626;23.380;2023-05-17T09:31:17;15.50;;;9.10;;
39300;SDS011;25019;42.626;23.380;2023-05-17T09:33:49;13.77;;;9.07;;
39300;SDS011;25019;42.626;23.380;2023-05-17T09:36:19;14.97;;;8.50;;
39300;SDS011;25019;42.626;23.380;2023-05-17T09:38:53;16.10;;;9.03;;
39300;SDS011;25019;42.626;23.380;2023-05-17T09:41:20;17.03;;;8.80;;
39300;SDS011;25019;42.626;23.380;2023-05-17T09:43:47;12.37;;;8.50;;
39300;SDS011;25019;42.626;23.380;2023-05-17T09:46:13;20.63;;;8.43;;
39300;SDS011;25019;42.626;23.380;2023-05-17T09:48:40;12.83;;;7.50;;
39300;SDS011;25019;42.626;23.380;2023-05-17T09:51:08;10.97;;;7.70;;
39300;SDS011;25019;42.626;23.380;2023-05-17T09:53:33;12.33;;;7.20;;
39300;SDS011;25019;42.626;23.380;2023-05-17T09:56:08;12.57;;;7.17;;
39300;SDS011;25019;42.626;23.380;2023-05-17T09:58:37;14.00;;;7.90;;
39300;SDS011;25019;42.626;23.380;2023-05-17T10:01:05;10.60;;;7.23;;
39300;SDS011;25019;42.626;23.380;2023-05-17T10:03:33;13.47;;;7.77;;
39300;SDS011;25019;42.626;23.380;2023-05-17T10:06:05;13.20;;;7.43;;
39300;SDS011;25019;42.626;23.380;2023-05-17T10:08:32;13.43;;;7.43;;
39300;SDS011;25019;42.626;23.380;2023-05-17T10:11:08;14.07;;;7.07;;
39300;SDS011;25019;42.626;23.380;2023-05-17T10:13:39;13.17;;;7.03;;
39300;SDS011;25019;42.626;23.380;2023-05-17T10:16:05;11.27;;;6.10;;
39300;SDS011;25019;42.626;23.380;2023-05-17T10:18:31;12.77;;;7.17;;
39300;SDS011;25019;42.626;23.380;2023-05-17T10:20:57;14.67;;;7.27;;
39300;SDS011;25019;42.626;23.380;2023-05-17T10:23:25;13.23;;;7.40;;
39300;SDS011;25019;42.626;23.380;2023-05-17T10:25:51;14.30;;;7.50;;
39300;SDS011;25019;42.626;23.380;2023-05-17T10:28:18;13.73;;;7.07;;
39300;SDS011;25019;42.626;23.380;2023-05-17T10:30:45;10.63;;;6.47;;
39300;SDS011;25019;42.626;23.380;2023-05-17T10:33:11;13.07;;;6.97;;
39300;SDS011;25019;42.626;23.380;2023-05-17T10:35:39;10.87;;;7.13;;
39300;SDS011;25019;42.626;23.380;2023-05-17T10:38:05;11.27;;;6.87;;
39300;SDS011;25019;42.626;23.380;2023-05-17T10:40:31;15.33;;;7.50;;
39300;SDS011;25019;42.626;23.380;2023-05-17T10:42:57;10.43;;;7.43;;
39300;SDS011;25019;42.626;23.380;2023-05-17T10:45:23;15.23;;;6.87;;
39300;SDS011;25019;42.626;23.380;2023-05-17T10:47:51;14.20;;;7.47;;
39300;SDS011;25019;42.626;23.380;2023-05-17T10:50:23;15.27;;;7.80;;
39300;SDS011;25019;42.626;23.380;2023-05-17T10:52:51;15.77;;;7.30;;
39300;SDS011;25019;42.626;23.380;2023-05-17T10:55:23;9.90;;;7.40;;
39300;SDS011;25019;42.626;23.380;2023-05-17T10:58:16;12.43;;;6.33;;
39300;SDS011;25019;42.626;23.380;2023-05-17T11:00:51;9.80;;;5.87;;
39300;SDS011;25019;42.626;23.380;2023-05-17T11:03:21;12.60;;;6.10;;
39300;SDS011;25019;42.626;23.380;2023-05-17T11:06:12;10.80;;;6.27;;
39300;SDS011;25019;42.626;23.380;2023-05-17T11:08:43;9.87;;;5.97;;
39300;SDS011;25019;42.626;23.380;2023-05-17T11:11:13;10.40;;;6.33;;
39300;SDS011;25019;42.626;23.380;2023-05-17T11:14:01;8.23;;;5.63;;
39300;SDS011;25019;42.626;23.380;2023-05-17T11:16:35;9.83;;;5.50;;
39300;SDS011;25019;42.626;23.380;2023-05-17T11:19:05;12.83;;;8.00;;
39300;SDS011;25019;42.626;23.380;2023-05-17T11:21:43;13.63;;;7.63;;
39300;SDS011;25019;42.626;23.380;2023-05-17T11:24:10;17.17;;;9.07;;
39300;SDS011;25019;42.626;23.380;2023-05-17T11:26:43;14.20;;;7.67;;
39300;SDS011;25019;42.626;23.380;2023-05-17T11:29:10;13.87;;;8.03;;
39300;SDS011;25019;42.626;23.380;2023-05-17T11:31:37;13.27;;;7.53;;
39300;SDS011;25019;42.626;23.380;2023-05-17T11:34:08;11.87;;;7.70;;
39300;SDS011;25019;42.626;23.380;2023-05-17T11:36:47;16.13;;;6.70;;
39300;SDS011;25019;42.626;23.380;2023-05-17T11:39:17;11.37;;;6.90;;
39300;SDS011;25019;42.626;23.380;2023-05-17T11:41:49;12.10;;;7.00;;
39300;SDS011;25019;42.626;23.380;2023-05-17T11:44:32;13.80;;;6.87;;
39300;SDS011;25019;42.626;23.380;2023-05-17T11:47:02;13.30;;;6.80;;
39300;SDS011;25019;42.626;23.380;2023-05-17T11:49:29;10.40;;;6.10;;
39300;SDS011;25019;42.626;23.380;2023-05-17T11:51:57;12.23;;;6.20;;
39300;SDS011;25019;42.626;23.380;2023-05-17T11:54:23;11.00;;;6.33;;
39300;SDS011;25019;42.626;23.380;2023-05-17T11:56:51;13.33;;;7.00;;
39300;SDS011;25019;42.626;23.380;2023-05-17T11:59:18;11.17;;;6.40;;
39300;SDS011;25019;42.626;23.380;2023-05-17T12:01:45;15.17;;;6.63;;
39300;SDS011;25019;42.626;23.380;2023-05-17T12:04:12;14.37;;;7.17;;
39300;SDS011;25019;42.626;23.380;2023-05-17T12:06:38;11.97;;;7.13;;
39300;SDS011;25019;42.626;23.380;2023-05-17T12:09:04;10.10;;;6.37;;
39300;SDS011;25019;42.626;23.380;2023-05-17T12:11:35;15.17;;;7.00;;
39300;SDS011;25019;42.626;23.380;2023-05-17T12:14:03;13.33;;;6.97;;
39300;SDS011;25019;42.626;23.380;2023-05-17T12:16:30;12.53;;;6.20;;
39300;SDS011;25019;42.626;23.380;2023-05-17T12:18:57;12.30;;;6.03;;
39300;SDS011;25019;42.626;23.380;2023-05-17T12:21:23;13.53;;;6.80;;
39300;SDS011;25019;42.626;23.380;2023-05-17T12:23:49;13.43;;;6.77;;
39300;SDS011;25019;42.626;23.380;2023-05-17T12:26:19;14.77;;;6.70;;
39300;SDS011;25019;42.626;23.380;2023-05-17T12:28:55;14.73;;;7.33;;
39300;SDS011;25019;42.626;23.380;2023-05-17T12:33:55;14.70;;;7.40;;
39300;SDS011;25019;42.626;23.380;2023-05-17T12:36:23;13.03;;;7.77;;
39300;SDS011;25019;42.626;23.380;2023-05-17T12:38:49;9.73;;;6.70;;
39300;SDS011;25019;42.626;23.380;2023-05-17T12:41:17;10.93;;;7.00;;
39300;SDS011;25019;42.626;23.380;2023-05-17T12:43:44;11.83;;;6.77;;
39300;SDS011;25019;42.626;23.380;2023-05-17T12:46:11;15.80;;;7.03;;
39300;SDS011;25019;42.626;23.380;2023-05-17T12:48:39;13.20;;;7.60;;
39300;SDS011;25019;42.626;23.380;2023-05-17T12:51:07;14.80;;;6.47;;
39300;SDS011;25019;42.626;23.380;2023-05-17T12:53:41;17.53;;;7.60;;
39300;SDS011;25019;42.626;23.380;2023-05-17T12:56:13;13.23;;;7.43;;
39300;SDS011;25019;42.626;23.380;2023-05-17T12:58:47;17.40;;;7.73;;
39300;SDS011;25019;42.626;23.380;2023-05-17T13:01:38;14.17;;;6.60;;
39300;SDS011;25019;42.626;23.380;2023-05-17T13:04:06;10.63;;;6.90;;
39300;SDS011;25019;42.626;23.380;2023-05-17T13:06:41;16.57;;;7.87;;
39300;SDS011;25019;42.626;23.380;2023-05-17T13:09:08;13.40;;;7.27;;
39300;SDS011;25019;42.626;23.380;2023-05-17T13:11:34;11.47;;;6.90;;
39300;SDS011;25019;42.626;23.380;2023-05-17T13:14:05;13.90;;;7.30;;
39300;SDS011;25019;42.626;23.380;2023-05-17T13:16:36;10.90;;;6.33;;
39300;SDS011;25019;42.626;23.380;2023-05-17T13:19:04;13.10;;;6.60;;
39300;SDS011;25019;42.626;23.380;2023-05-17T13:21:36;12.60;;;6.57;;
39300;SDS011;25019;42.626;23.380;2023-05-17T13:24:02;11.03;;;6.87;;
39300;SDS011;25019;42.626;23.380;2023-05-17T13:26:28;12.40;;;7.30;;
39300;SDS011;25019;42.626;23.380;2023-05-17T13:28:53;9.50;;;6.20;;
39300;SDS011;25019;42.626;23.380;2023-05-17T13:31:19;14.13;;;6.57;;
39300;SDS011;25019;42.626;23.380;2023-05-17T13:33:45;13.67;;;7.10;;
39300;SDS011;25019;42.626;23.380;2023-05-17T13:36:14;11.23;;;6.63;;
39300;SDS011;25019;42.626;23.380;2023-05-17T13:38:40;11.90;;;7.03;;
39300;SDS011;25019;42.626;23.380;2023-05-17T13:41:06;9.97;;;6.80;;
39300;SDS011;25019;42.626;23.380;2023-05-17T13:43:33;11.37;;;7.17;;
39300;SDS011;25019;42.626;23.380;2023-05-17T13:45:59;9.50;;;6.47;;
39300;SDS011;25019;42.626;23.380;2023-05-17T13:48:26;10.43;;;6.57;;
39300;SDS011;25019;42.626;23.380;2023-05-17T13:50:51;12.03;;;6.17;;
39300;SDS011;25019;42.626;23.380;2023-05-17T13:53:17;9.63;;;6.20;;
39300;SDS011;25019;42.626;23.380;2023-05-17T13:55:43;11.87;;;6.10;;
39300;SDS011;25019;42.626;23.380;2023-05-17T13:58:09;10.50;;;6.20;;
39300;SDS011;25019;42.626;23.380;2023-05-17T14:00:35;8.93;;;5.70;;
39300;SDS011;25019;42.626;23.380;2023-05-17T14:03:01;12.43;;;5.40;;
39300;SDS011;25019;42.626;23.380;2023-05-17T14:05:27;12.03;;;5.47;;
39300;SDS011;25019;42.626;23.380;2023-05-17T14:07:55;11.23;;;5.00;;
39300;SDS011;25019;42.626;23.380;2023-05-17T14:10:21;7.53;;;3.97;;
39300;SDS011;25019;42.626;23.380;2023-05-17T14:12:46;7.73;;;4.80;;
39300;SDS011;25019;42.626;23.380;2023-05-17T14:15:12;8.40;;;4.43;;
39300;SDS011;25019;42.626;23.380;2023-05-17T14:17:38;9.37;;;3.70;;
39300;SDS011;25019;42.626;23.380;2023-05-17T14:20:04;8.60;;;4.17;;
39300;SDS011;25019;42.626;23.380;2023-05-17T14:22:30;8.67;;;4.40;;
39300;SDS011;25019;42.626;23.380;2023-05-17T14:24:55;9.97;;;4.47;;
39300;SDS011;25019;42.626;23.380;2023-05-17T14:27:21;8.23;;;5.00;;
39300;SDS011;25019;42.626;23.380;2023-05-17T14:29:47;9.83;;;4.87;;
39300;SDS011;25019;42.626;23.380;2023-05-17T14:32:12;11.53;;;5.43;;
39300;SDS011;25019;42.626;23.380;2023-05-17T14:34:38;11.13;;;5.00;;
39300;SDS011;25019;42.626;23.380;2023-05-17T14:37:04;9.83;;;4.40;;